Time;durP1;ratioP1;P1;durP2;ratioP2;P2;SDS_P1;SDS_P2;PMS_P1;PMS_P2;Temp;Humidity;BMP_temperature;BMP_pressure;BME280_temperature;BME280_humidity;BME280_pressure;Samples;Min_cycle;Max_cycle;Signal;HPM_P1;HPM_P2
2021/01/10 00:00:19;;;;;;;16.23;10.03;;;;;;;-3.72;78.22;95999.94;5052810;28;20678;-74
2021/01/10 00:02:45;;;;;;;12.20;8.90;;;;;;;-3.79;78.85;95993.44;5053149;28;20586;-74
2021/01/10 00:05:20;;;;;;;13.47;9.63;;;;;;;-3.67;78.62;95996.44;5073243;28;20415;-74
2021/01/10 00:07:45;;;;;;;11.17;8.10;;;;;;;-3.68;78.35;95992.25;5040321;28;20652;-74
2021/01/10 00:10:11;;;;;;;14.20;9.30;;;;;;;-3.78;79.08;95994.25;5074321;28;20219;-74
2021/01/10 00:12:37;;;;;;;13.07;9.07;;;;;;;-3.77;78.60;95995.91;5056808;28;20188;-74
2021/01/10 00:15:04;;;;;;;12.47;8.80;;;;;;;-3.71;78.94;95986.41;5056633;28;20652;-74
2021/01/10 00:17:29;;;;;;;14.20;9.03;;;;;;;-3.75;78.82;95986.53;5073202;28;20200;-74
2021/01/10 00:19:54;;;;;;;12.77;8.70;;;;;;;-3.78;79.09;95984.94;5074372;28;20187;-74
2021/01/10 00:22:21;;;;;;;13.20;8.90;;;;;;;-3.75;79.55;95972.13;5074493;28;20189;-74
2021/01/10 00:24:47;;;;;;;13.90;9.17;;;;;;;-3.79;78.95;95978.22;5061035;28;20275;-73
2021/01/10 00:27:18;;;;;;;13.20;8.70;;;;;;;-3.72;78.57;95969.47;5077545;28;20223;-74
2021/01/10 00:29:46;;;;;;;12.93;8.87;;;;;;;-3.69;77.90;95971.13;5056602;28;20181;-74
2021/01/10 00:32:12;;;;;;;13.03;8.47;;;;;;;-3.69;78.76;95970.28;5056509;28;20206;-74
2021/01/10 00:34:38;;;;;;;13.97;8.83;;;;;;;-3.73;78.79;95983.06;5074360;28;20212;-74
2021/01/10 00:37:17;;;;;;;17.20;9.07;;;;;;;-3.80;78.69;95973.16;5056132;28;20644;-74
2021/01/10 00:39:43;;;;;;;15.83;9.33;;;;;;;-3.78;78.31;95979.84;5056334;28;20174;-74
2021/01/10 00:42:09;;;;;;;17.67;10.50;;;;;;;-3.79;79.00;95987.53;5056233;28;20177;-74
2021/01/10 00:44:35;;;;;;;18.50;10.30;;;;;;;-3.89;78.91;95984.44;5073978;28;20205;-74
2021/01/10 00:47:01;;;;;;;14.73;9.07;;;;;;;-3.89;78.46;95981.91;5039379;28;20205;-74
2021/01/10 00:49:26;;;;;;;13.90;9.40;;;;;;;-3.91;79.60;95986.19;5055930;28;20180;-74
2021/01/10 00:51:53;;;;;;;15.47;9.13;;;;;;;-4.00;79.72;95984.78;5056029;28;20575;-74
2021/01/10 00:54:18;;;;;;;15.70;9.67;;;;;;;-4.02;79.17;95989.09;5056093;28;20177;-74
2021/01/10 00:56:44;;;;;;;13.73;9.73;;;;;;;-4.05;79.27;95985.84;5055881;28;20231;-74
2021/01/10 00:59:09;;;;;;;13.37;9.67;;;;;;;-3.97;79.77;95993.22;5055616;28;20187;-74
2021/01/10 01:01:34;;;;;;;15.07;9.03;;;;;;;-3.97;79.14;95990.66;5055978;28;20271;-74
2021/01/10 01:04:00;;;;;;;14.17;9.87;;;;;;;-4.05;79.77;95990.91;5039171;28;20193;-74
2021/01/10 01:06:25;;;;;;;14.07;8.97;;;;;;;-3.97;79.42;95994.03;5055587;28;20275;-74
2021/01/10 01:08:50;;;;;;;15.93;9.87;;;;;;;-4.04;80.41;95997.63;5073358;28;20193;-74
2021/01/10 01:11:15;;;;;;;14.27;9.30;;;;;;;-4.09;80.32;96000.31;5039069;28;20247;-74
2021/01/10 01:13:41;;;;;;;16.33;10.13;;;;;;;-4.11;79.71;96001.25;5073504;28;20177;-74
2021/01/10 01:16:07;;;;;;;16.10;9.70;;;;;;;-4.06;79.93;96007.00;5073176;28;20173;-74
2021/01/10 01:18:33;;;;;;;12.10;8.60;;;;;;;-3.91;79.49;96003.97;5073146;28;20208;-74
2021/01/10 01:20:58;;;;;;;16.10;9.60;;;;;;;-3.93;79.39;96008.25;5073297;28;20192;-74
2021/01/10 01:23:23;;;;;;;14.17;9.47;;;;;;;-3.92;79.36;96007.38;5073347;28;20189;-74
2021/01/10 01:25:49;;;;;;;12.73;8.13;;;;;;;-3.87;79.85;96005.53;5054931;28;20214;-74
2021/01/10 01:28:15;;;;;;;14.90;9.37;;;;;;;-3.83;79.27;96009.63;5038702;28;20201;-74
2021/01/10 01:30:40;;;;;;;14.97;9.77;;;;;;;-3.83;78.84;96002.00;5073058;28;20184;-74
2021/01/10 01:33:05;;;;;;;16.00;10.07;;;;;;;-3.88;78.96;96001.34;5073131;28;20591;-74
2021/01/10 01:35:30;;;;;;;16.50;10.00;;;;;;;-3.92;79.23;96012.47;5055177;28;20177;-74
2021/01/10 01:37:57;;;;;;;15.43;11.00;;;;;;;-3.97;79.50;96019.41;5055071;28;20197;-74
2021/01/10 01:40:22;;;;;;;15.00;8.90;;;;;;;-3.96;79.65;96012.63;5055167;28;20205;-74
2021/01/10 01:42:48;;;;;;;16.03;10.07;;;;;;;-3.92;79.50;96025.13;5055155;28;20600;-74
2021/01/10 01:45:13;;;;;;;15.43;9.87;;;;;;;-3.96;79.64;96020.22;5072805;28;20317;-74
2021/01/10 01:47:39;;;;;;;15.03;9.97;;;;;;;-3.92;79.37;96021.78;5072791;28;20205;-74
2021/01/10 01:50:05;;;;;;;14.50;9.23;;;;;;;-3.89;79.79;96022.50;5054703;28;20173;-74
2021/01/10 01:52:31;;;;;;;15.30;10.17;;;;;;;-3.82;79.44;96020.59;5038094;28;20192;-74
2021/01/10 01:54:56;;;;;;;13.60;10.43;;;;;;;-3.89;78.70;96027.56;5054942;28;20177;-74
2021/01/10 01:57:22;;;;;;;13.77;9.23;;;;;;;-3.83;79.50;96026.56;5072655;28;20901;-74
2021/01/10 01:59:47;;;;;;;14.70;10.07;;;;;;;-3.93;78.67;96028.56;5037850;28;20216;-74
2021/01/10 02:02:13;;;;;;;18.73;11.00;;;;;;;-3.91;79.18;96025.97;5072492;28;20178;-74
2021/01/10 02:04:47;;;;;;;15.90;9.70;;;;;;;-3.83;79.17;96024.03;5034018;28;20267;-74
2021/01/10 02:07:34;;;;;;;12.67;9.07;;;;;;;-3.93;79.43;96022.66;5071964;28;20201;-74
2021/01/10 02:10:04;;;;;;;14.93;10.00;;;;;;;-3.90;78.57;96025.91;5054320;28;20350;-74
2021/01/10 02:12:33;;;;;;;14.33;9.43;;;;;;;-3.93;79.19;96020.94;5072306;28;20184;-74
2021/01/10 02:15:01;;;;;;;13.53;9.77;;;;;;;-3.96;79.32;96023.59;5054136;28;20174;-74
2021/01/10 02:17:29;;;;;;;15.23;9.73;;;;;;;-4.00;79.31;96024.56;5054390;28;20201;-74
2021/01/10 02:20:09;;;;;;;17.13;9.83;;;;;;;-4.01;80.21;96021.19;5054304;28;20186;-74
2021/01/10 02:22:49;;;;;;;13.80;8.87;;;;;;;-3.85;79.51;96029.16;5054264;28;20675;-74
2021/01/10 02:25:14;;;;;;;16.33;10.23;;;;;;;-3.97;79.85;96029.56;5053954;28;20228;-74
2021/01/10 02:27:40;;;;;;;13.63;9.27;;;;;;;-3.96;79.82;96026.13;5071448;28;20205;-74
2021/01/10 02:30:06;;;;;;;15.03;9.70;;;;;;;-4.02;80.73;96023.78;5053964;28;20173;-74
2021/01/10 02:32:33;;;;;;;16.47;9.93;;;;;;;-3.87;79.15;96022.47;5054185;28;20268;-74
2021/01/10 02:34:59;;;;;;;15.67;10.10;;;;;;;-3.89;79.30;96030.09;5070736;28;20255;-74
2021/01/10 02:37:54;;;;;;;13.83;9.27;;;;;;;-3.99;80.20;96023.66;5053925;28;20646;-74
2021/01/10 02:40:24;;;;;;;13.77;9.67;;;;;;;-3.97;79.98;96024.47;5053919;28;20184;-74
2021/01/10 02:43:06;;;;;;;15.57;9.67;;;;;;;-4.08;80.24;96016.34;5054031;28;20595;-74
2021/01/10 02:45:33;;;;;;;15.77;9.53;;;;;;;-4.05;80.39;96014.56;5054148;28;20617;-74
2021/01/10 02:47:58;;;;;;;12.70;9.10;;;;;;;-4.00;79.89;96015.22;5053806;28;20601;-74
2021/01/10 02:50:23;;;;;;;15.70;10.23;;;;;;;-3.97;80.41;96009.25;5053597;28;20177;-74
2021/01/10 02:52:49;;;;;;;16.97;9.73;;;;;;;-3.99;79.95;96003.38;5053902;28;20656;-74
2021/01/10 02:55:16;;;;;;;14.00;9.53;;;;;;;-3.96;80.45;95999.94;5053784;28;20177;-74
2021/01/10 02:57:47;;;;;;;14.83;10.10;;;;;;;-3.95;80.51;96007.50;5053741;28;20203;-74
2021/01/10 03:00:14;;;;;;;15.97;9.83;;;;;;;-3.96;80.42;96010.91;5036803;28;20182;-74
2021/01/10 03:02:39;;;;;;;15.43;9.83;;;;;;;-3.91;80.26;96009.03;5053635;28;20661;-74
2021/01/10 03:05:06;;;;;;;15.97;9.50;;;;;;;-3.95;81.17;96002.41;5053662;28;20297;-74
2021/01/10 03:07:34;;;;;;;14.90;9.80;;;;;;;-4.05;80.72;95996.81;5053533;28;20233;-74
2021/01/10 03:10:00;;;;;;;14.83;9.03;;;;;;;-3.80;79.38;95999.38;5053277;28;20277;-74
2021/01/10 03:12:26;;;;;;;16.90;10.30;;;;;;;-3.94;80.70;95998.16;5053655;28;20184;-74
2021/01/10 03:15:00;;;;;;;16.33;8.97;;;;;;;-3.83;79.82;95996.94;5070094;28;20189;-74
2021/01/10 03:17:37;;;;;;;14.40;9.33;;;;;;;-3.94;80.64;95988.84;5087020;28;20195;-74
2021/01/10 03:20:05;;;;;;;16.50;10.17;;;;;;;-4.00;80.06;95989.88;5071185;28;20548;-74
2021/01/10 03:22:31;;;;;;;16.40;10.50;;;;;;;-3.96;80.53;95983.00;5036799;28;20191;-74
2021/01/10 03:24:56;;;;;;;14.77;9.50;;;;;;;-3.90;79.98;95985.31;5053096;28;20284;-74
2021/01/10 03:27:21;;;;;;;13.93;9.53;;;;;;;-3.96;80.70;95979.63;5036736;28;20284;-74
2021/01/10 03:29:47;;;;;;;14.87;9.40;;;;;;;-3.97;80.97;95980.53;5053469;28;20570;-74
2021/01/10 03:32:12;;;;;;;15.40;9.43;;;;;;;-3.95;79.99;95982.13;5053386;28;20177;-74
2021/01/10 03:34:37;;;;;;;17.23;10.27;;;;;;;-3.86;80.85;95976.75;5053426;28;20266;-74
2021/01/10 03:37:03;;;;;;;14.67;9.90;;;;;;;-3.80;79.62;95971.47;5071611;28;20202;-74
2021/01/10 03:39:30;;;;;;;15.10;9.53;;;;;;;-3.84;80.40;95969.06;5073613;28;20654;-74
2021/01/10 03:41:56;;;;;;;15.40;9.30;;;;;;;-3.95;80.14;95968.59;5057288;28;20560;-74
2021/01/10 03:44:21;;;;;;;13.00;8.50;;;;;;;-3.96;80.63;95977.94;5040584;28;20181;-74
2021/01/10 03:46:46;;;;;;;12.13;9.10;;;;;;;-4.01;80.35;95974.69;5075136;28;20560;-74
2021/01/10 03:49:11;;;;;;;15.97;10.33;;;;;;;-4.05;80.21;95983.31;5074890;28;20182;-74
2021/01/10 03:51:37;;;;;;;15.77;10.40;;;;;;;-3.97;80.60;95986.41;5057117;28;20188;-74
2021/01/10 03:54:02;;;;;;;16.00;9.37;;;;;;;-4.06;81.15;95979.94;5074956;28;20174;-74
2021/01/10 03:56:28;;;;;;;16.27;11.03;;;;;;;-4.07;80.78;95977.41;5040278;28;20174;-74
2021/01/10 03:58:53;;;;;;;17.60;10.87;;;;;;;-4.07;80.81;95982.50;5040102;28;20716;-74
2021/01/10 04:01:18;;;;;;;15.70;10.20;;;;;;;-4.03;79.81;95984.06;5057041;28;20636;-74
2021/01/10 04:03:43;;;;;;;15.40;11.17;;;;;;;-4.11;80.91;95983.47;5057002;28;20177;-74
2021/01/10 04:06:09;;;;;;;17.40;10.30;;;;;;;-4.13;80.86;95981.00;5056855;28;20229;-74
2021/01/10 04:08:34;;;;;;;14.90;10.20;;;;;;;-4.13;80.33;95988.63;5056369;28;20271;-74
2021/01/10 04:10:59;;;;;;;14.87;10.07;;;;;;;-4.02;80.50;95983.19;5074675;28;20180;-74
2021/01/10 04:13:25;;;;;;;15.10;10.40;;;;;;;-4.03;80.25;95984.06;5074746;28;20209;-74
2021/01/10 04:15:50;;;;;;;18.10;10.40;;;;;;;-4.01;80.01;95992.47;5074630;28;20587;-75
2021/01/10 04:18:15;;;;;;;16.00;10.13;;;;;;;-4.09;81.06;95989.34;5074537;28;20655;-74
2021/01/10 04:20:40;;;;;;;13.47;9.47;;;;;;;-4.06;80.20;95986.72;5056465;28;20587;-74
2021/01/10 04:23:06;;;;;;;15.33;10.50;;;;;;;-4.02;80.05;95985.72;5056428;28;20186;-74
2021/01/10 04:25:31;;;;;;;14.03;9.07;;;;;;;-4.16;79.99;95982.78;5074220;28;20244;-74
2021/01/10 04:27:56;;;;;;;13.47;9.67;;;;;;;-4.06;80.28;95984.19;5056538;28;20198;-74
2021/01/10 04:30:22;;;;;;;16.40;10.30;;;;;;;-4.10;80.54;95990.22;5056275;28;20226;-74
2021/01/10 04:32:47;;;;;;;14.13;9.63;;;;;;;-4.09;79.90;95986.78;5074308;28;20213;-74
2021/01/10 04:35:12;;;;;;;15.83;10.23;;;;;;;-4.16;80.58;95981.06;5039715;28;20669;-74
2021/01/10 04:37:38;;;;;;;15.47;10.17;;;;;;;-4.20;79.65;95976.16;5056214;28;20228;-74
2021/01/10 04:40:04;;;;;;;17.80;10.17;;;;;;;-4.11;79.18;95978.41;5074105;28;20178;-74
2021/01/10 04:42:29;;;;;;;16.47;10.47;;;;;;;-4.24;80.08;95977.97;5039547;28;20554;-74
2021/01/10 04:44:55;;;;;;;15.97;11.07;;;;;;;-4.34;79.98;95979.94;5056207;28;20197;-74
2021/01/10 04:47:21;;;;;;;15.73;10.30;;;;;;;-4.38;80.50;95985.19;5039325;28;20205;-73
2021/01/10 04:49:47;;;;;;;17.53;10.80;;;;;;;-4.38;80.24;95983.47;5055257;28;20189;-74
2021/01/10 04:52:16;;;;;;;15.67;10.57;;;;;;;-4.34;80.30;95987.56;5056157;28;20173;-74
2021/01/10 04:54:42;;;;;;;16.57;10.40;;;;;;;-4.39;80.01;95991.97;5039629;28;20181;-74
2021/01/10 04:57:12;;;;;;;17.43;10.73;;;;;;;-4.36;79.73;95980.88;5056364;28;20198;-73
2021/01/10 04:59:41;;;;;;;16.73;10.53;;;;;;;-4.38;79.94;95993.59;5055630;28;20181;-74
2021/01/10 05:02:08;;;;;;;14.97;10.57;;;;;;;-4.54;80.53;95994.13;5055781;28;20173;-74
2021/01/10 05:04:34;;;;;;;16.03;10.70;;;;;;;-4.47;80.69;95988.00;5039131;28;20664;-74
2021/01/10 05:07:00;;;;;;;16.30;10.67;;;;;;;-4.60;80.74;95993.41;5073721;28;20660;-73
2021/01/10 05:09:25;;;;;;;20.13;11.10;;;;;;;-4.57;80.94;95993.34;5073525;28;20189;-74
2021/01/10 05:11:51;;;;;;;16.43;10.87;;;;;;;-4.62;81.05;95995.16;5055828;28;20298;-74
2021/01/10 05:14:16;;;;;;;18.73;11.47;;;;;;;-4.65;80.58;95991.91;5055788;28;20181;-74
2021/01/10 05:16:41;;;;;;;17.77;11.63;;;;;;;-4.61;81.23;95996.00;5055687;28;20169;-74
2021/01/10 05:19:07;;;;;;;16.07;11.17;;;;;;;-4.66;81.50;95997.84;5055260;28;20545;-74
2021/01/10 05:21:32;;;;;;;17.33;10.53;;;;;;;-4.77;80.98;95992.25;5073420;28;20173;-74
2021/01/10 05:23:58;;;;;;;16.10;10.87;;;;;;;-4.82;80.91;95992.41;5055524;28;20181;-73
2021/01/10 05:26:31;;;;;;;17.40;10.70;;;;;;;-4.92;80.94;95989.31;5055224;28;20217;-74
2021/01/10 05:28:57;;;;;;;16.53;10.70;;;;;;;-5.01;81.28;95991.28;5038393;28;20564;-74
2021/01/10 05:31:38;;;;;;;16.50;10.40;;;;;;;-5.00;81.85;95988.69;5073083;28;20186;-74
2021/01/10 05:34:04;;;;;;;17.47;11.07;;;;;;;-5.04;81.10;95982.03;5088772;28;20182;-74
2021/01/10 05:36:32;;;;;;;17.13;10.70;;;;;;;-5.07;81.26;95986.38;5055145;28;20181;-74
2021/01/10 05:39:21;;;;;;;16.97;10.43;;;;;;;-5.10;81.56;95997.41;5054887;28;20643;-74
2021/01/10 05:41:57;;;;;;;15.17;10.33;;;;;;;-5.18;81.10;95997.63;5045879;28;20197;-74
2021/01/10 05:44:46;;;;;;;17.50;10.93;;;;;;;-5.25;82.15;95995.31;5055070;28;20185;-74
2021/01/10 05:47:14;;;;;;;16.07;10.80;;;;;;;-5.33;81.87;95992.16;5072818;28;20201;-74
2021/01/10 05:49:53;;;;;;;17.07;10.20;;;;;;;-5.32;81.52;96001.41;5054808;28;20177;-74
2021/01/10 05:52:19;;;;;;;16.03;10.00;;;;;;;-5.26;81.80;95994.47;5055129;28;20211;-73
2021/01/10 05:54:46;;;;;;;19.40;11.10;;;;;;;-5.38;81.95;95994.00;5054840;28;20223;-74
2021/01/10 05:57:16;;;;;;;17.17;10.50;;;;;;;-5.40;81.96;95988.94;5038090;28;20247;-74
2021/01/10 05:59:44;;;;;;;17.57;11.33;;;;;;;-5.47;82.36;95987.47;5054543;28;20541;-74
2021/01/10 06:02:09;;;;;;;17.70;11.07;;;;;;;-5.46;81.80;95984.88;5071564;28;20264;-74
2021/01/10 06:04:35;;;;;;;17.83;11.50;;;;;;;-5.58;82.30;95985.19;5054494;28;20256;-73
2021/01/10 06:07:00;;;;;;;17.77;11.50;;;;;;;-5.57;81.89;95984.31;5038059;28;20223;-74
2021/01/10 06:09:26;;;;;;;16.93;10.63;;;;;;;-5.49;81.64;95989.19;5054147;28;20189;-73
2021/01/10 06:11:52;;;;;;;18.67;10.67;;;;;;;-5.45;81.73;95985.72;5054710;28;20227;-73
2021/01/10 06:14:22;;;;;;;16.20;10.67;;;;;;;-5.50;82.13;95992.59;5037841;28;20185;-74
2021/01/10 06:16:57;;;;;;;18.33;11.63;;;;;;;-5.55;81.94;95991.91;5070885;28;20192;-73
2021/01/10 06:19:28;;;;;;;16.87;11.60;;;;;;;-5.38;81.30;95991.47;5054101;28;20180;-73
2021/01/10 06:21:55;;;;;;;16.00;10.13;;;;;;;-5.37;82.33;95990.59;5054401;28;20268;-73
2021/01/10 06:24:22;;;;;;;16.67;10.33;;;;;;;-5.21;81.01;95986.75;5054420;28;20173;-73
2021/01/10 06:26:53;;;;;;;15.37;10.07;;;;;;;-5.17;80.95;95988.31;5053912;28;20197;-73
2021/01/10 06:29:19;;;;;;;16.77;10.10;;;;;;;-5.07;81.16;95988.91;5054135;28;20172;-74
2021/01/10 06:31:50;;;;;;;14.70;9.83;;;;;;;-5.00;80.94;95995.47;5054111;28;20174;-74
2021/01/10 06:34:19;;;;;;;16.80;9.43;;;;;;;-4.86;80.22;95990.81;5054334;28;20169;-73
2021/01/10 06:36:46;;;;;;;17.30;10.47;;;;;;;-4.86;79.51;95995.88;5054019;28;20538;-74
2021/01/10 06:39:11;;;;;;;15.57;9.80;;;;;;;-4.86;80.38;95994.19;5036881;28;20185;-74
2021/01/10 06:41:43;;;;;;;14.53;9.43;;;;;;;-4.76;79.13;95999.84;5071684;28;20526;-73
2021/01/10 06:44:09;;;;;;;14.97;9.23;;;;;;;-4.72;79.57;96000.56;5071489;28;20180;-74
2021/01/10 06:46:34;;;;;;;14.03;9.00;;;;;;;-4.71;79.78;95999.69;5070246;28;20212;-73
2021/01/10 06:49:00;;;;;;;13.50;8.67;;;;;;;-4.69;79.16;96003.81;5052213;28;20177;-74
2021/01/10 06:51:28;;;;;;;12.80;8.20;;;;;;;-4.58;79.06;95996.75;5053656;28;20584;-74
2021/01/10 06:53:53;;;;;;;14.50;9.17;;;;;;;-4.60;79.28;96002.72;5070195;28;20184;-73
2021/01/10 06:56:19;;;;;;;12.70;8.83;;;;;;;-4.66;79.48;95997.84;5053858;28;20165;-74
2021/01/10 06:59:08;;;;;;;13.37;8.90;;;;;;;-4.63;79.51;95992.69;5053299;28;20197;-74
2021/01/10 07:01:57;;;;;;;13.60;8.83;;;;;;;-4.65;78.75;95991.91;4992969;28;20191;-73
2021/01/10 07:04:48;;;;;;;14.17;9.50;;;;;;;-4.64;78.69;95988.50;5009590;28;20202;-73
2021/01/10 07:07:32;;;;;;;14.10;8.43;;;;;;;-4.66;79.10;95980.94;5008369;28;20245;-74
2021/01/10 07:09:57;;;;;;;13.07;8.40;;;;;;;-4.78;79.20;95993.94;4992681;28;20191;-74
2021/01/10 07:12:23;;;;;;;13.13;8.43;;;;;;;-4.75;78.33;95998.13;5009150;28;20198;-73
2021/01/10 07:14:49;;;;;;;12.37;8.33;;;;;;;-4.63;78.31;95997.75;5009313;28;20647;-73
2021/01/10 07:17:16;;;;;;;11.10;7.47;;;;;;;-4.61;78.06;95991.75;5005812;28;20215;-73
2021/01/10 07:19:43;;;;;;;11.47;7.50;;;;;;;-4.64;77.51;95993.56;5010942;28;20191;-74
2021/01/10 07:22:24;;;;;;;13.40;7.40;;;;;;;-4.62;78.07;95999.41;5026080;28;20217;-74
2021/01/10 07:24:49;;;;;;;12.67;7.87;;;;;;;-4.70;78.18;95998.81;5028639;28;20308;-74
2021/01/10 07:27:35;;;;;;;11.00;7.83;;;;;;;-4.69;78.19;96003.00;5028925;28;20807;-74
2021/01/10 07:30:23;;;;;;;11.70;7.73;;;;;;;-4.53;77.62;96000.84;5028512;28;20190;-74
2021/01/10 07:32:48;;;;;;;11.47;7.93;;;;;;;-4.58;77.84;96006.91;5028895;28;20179;-74
2021/01/10 07:35:13;;;;;;;11.20;7.50;;;;;;;-4.56;78.54;96009.38;5028938;28;20298;-74
2021/01/10 07:37:39;;;;;;;12.10;7.53;;;;;;;-4.45;78.15;96011.59;5032827;28;20610;-74
2021/01/10 07:40:09;;;;;;;11.03;7.37;;;;;;;-4.36;77.67;96012.13;5053076;28;20187;-74
2021/01/10 07:42:36;;;;;;;12.87;8.30;;;;;;;-4.39;77.50;96017.31;5053359;28;20173;-74
2021/01/10 07:45:19;;;;;;;12.03;7.73;;;;;;;-4.39;77.86;96016.47;5052674;28;20193;-74
2021/01/10 07:47:52;;;;;;;12.27;7.83;;;;;;;-4.38;77.45;96008.81;5070886;28;20243;-74
2021/01/10 07:50:19;;;;;;;10.27;7.67;;;;;;;-4.23;76.10;96016.84;5052887;28;20268;-75
2021/01/10 07:52:45;;;;;;;10.10;6.90;;;;;;;-4.11;75.99;96014.75;5053179;28;20169;-74
2021/01/10 07:55:19;;;;;;;11.07;8.07;;;;;;;-4.10;75.32;96018.13;5071070;28;20649;-74
2021/01/10 07:57:45;;;;;;;10.77;7.33;;;;;;;-4.14;76.49;96014.03;5070540;28;20207;-74
2021/01/10 08:00:20;;;;;;;10.03;6.80;;;;;;;-4.02;76.11;96013.63;5052736;28;20200;-74
2021/01/10 08:02:50;;;;;;;11.80;7.60;;;;;;;-4.05;75.80;96016.28;5053239;28;20169;-74
2021/01/10 08:05:17;;;;;;;15.10;10.47;;;;;;;-4.04;76.40;96015.41;5052829;28;20749;-74
2021/01/10 08:07:50;;;;;;;11.63;8.20;;;;;;;-4.05;76.36;96021.34;5053111;28;20225;-75
2021/01/10 08:10:15;;;;;;;9.03;6.93;;;;;;;-3.87;75.58;96019.94;5052542;28;20189;-75
2021/01/10 08:12:40;;;;;;;11.77;7.33;;;;;;;-3.92;75.29;96012.47;5070591;28;20200;-74
2021/01/10 08:15:07;;;;;;;11.20;7.83;;;;;;;-3.84;75.27;96015.56;5036163;28;20170;-75
2021/01/10 08:17:35;;;;;;;11.70;7.97;;;;;;;-3.80;75.55;96018.84;5053208;28;20247;-74
2021/01/10 08:20:02;;;;;;;13.80;9.40;;;;;;;-3.69;74.87;96023.59;5036108;28;20518;-74
2021/01/10 08:22:28;;;;;;;15.90;10.90;;;;;;;-3.72;74.76;96025.31;5052999;28;20256;-73
2021/01/10 08:24:53;;;;;;;15.70;9.90;;;;;;;-3.57;74.10;96025.72;5037420;28;20200;-74
2021/01/10 08:27:19;;;;;;;12.43;10.03;;;;;;;-3.64;74.02;96029.31;5056621;28;20204;-78
2021/01/10 08:29:46;;;;;;;13.73;9.80;;;;;;;-3.78;74.96;96028.06;5055684;28;20540;-74
2021/01/10 08:32:11;;;;;;;12.53;8.30;;;;;;;-3.58;74.06;96018.97;5056314;28;20637;-74
2021/01/10 08:34:47;;;;;;;11.67;7.97;;;;;;;-3.47;74.20;96016.91;5056165;28;20209;-74
2021/01/10 08:37:14;;;;;;;11.43;8.10;;;;;;;-3.41;73.92;96019.25;5056156;28;20189;-74
2021/01/10 08:39:39;;;;;;;10.73;7.77;;;;;;;-3.48;73.99;96017.78;5055834;28;20184;-74
2021/01/10 08:42:04;;;;;;;10.03;7.93;;;;;;;-3.26;73.32;96013.66;5074011;28;20608;-74
2021/01/10 08:44:30;;;;;;;10.20;7.30;;;;;;;-3.29;73.43;96013.72;5055619;28;20231;-74
2021/01/10 08:46:55;;;;;;;14.57;9.63;;;;;;;-3.30;72.57;96019.69;5055979;28;20681;-74
2021/01/10 08:49:26;;;;;;;12.83;8.73;;;;;;;-3.17;72.07;96009.97;5055908;28;20235;-74
2021/01/10 08:51:52;;;;;;;11.57;7.60;;;;;;;-3.19;71.89;96017.59;5073212;28;20213;-73
2021/01/10 08:54:23;;;;;;;13.03;10.10;;;;;;;-3.18;73.15;96021.84;5073938;28;20185;-73
2021/01/10 08:56:53;;;;;;;12.83;9.20;;;;;;;-3.14;72.61;96017.47;5039277;28;20276;-74
2021/01/10 08:59:19;;;;;;;13.83;8.90;;;;;;;-3.23;73.63;96026.22;5055690;28;20179;-74
2021/01/10 09:01:44;;;;;;;14.97;8.57;;;;;;;-3.18;73.05;96026.06;5056092;28;20229;-74
2021/01/10 09:04:11;;;;;;;11.67;8.37;;;;;;;-3.24;73.85;96027.13;5039122;28;20178;-74
2021/01/10 09:06:55;;;;;;;16.60;9.80;;;;;;;-3.05;73.10;96039.19;5055810;28;20553;-74
2021/01/10 09:09:32;;;;;;;13.67;8.50;;;;;;;-2.94;72.60;96035.38;5073260;28;20192;-74
2021/01/10 09:12:02;;;;;;;11.30;8.40;;;;;;;-2.84;72.24;96033.31;5073474;28;20632;-74
2021/01/10 09:14:49;;;;;;;12.83;8.93;;;;;;;-2.97;72.36;96035.47;5073557;28;20169;-74
2021/01/10 09:17:16;;;;;;;13.03;8.50;;;;;;;-2.98;73.48;96030.47;5055476;28;20223;-74
2021/01/10 09:19:42;;;;;;;11.37;8.20;;;;;;;-2.74;72.92;96033.81;5055292;28;20194;-75
2021/01/10 09:22:07;;;;;;;12.33;8.97;;;;;;;-2.60;72.01;96034.97;5073426;28;20173;-74
2021/01/10 09:24:33;;;;;;;13.63;8.90;;;;;;;-2.63;72.54;96036.81;5055202;28;20181;-74
2021/01/10 09:27:09;;;;;;;15.87;10.13;;;;;;;-2.72;72.68;96040.53;5055300;28;20198;-74
2021/01/10 09:29:35;;;;;;;12.43;7.67;;;;;;;-2.56;72.33;96040.81;5055263;28;20641;-74
2021/01/10 09:32:01;;;;;;;12.80;8.60;;;;;;;-2.36;71.96;96042.59;5073061;28;20177;-75
2021/01/10 09:34:27;;;;;;;12.43;8.03;;;;;;;-2.34;71.68;96040.81;5055270;28;20237;-75
2021/01/10 09:37:03;;;;;;;12.93;8.80;;;;;;;-2.31;71.50;96040.69;5055072;28;20197;-74
2021/01/10 09:39:41;;;;;;;12.47;8.37;;;;;;;-2.37;71.40;96039.22;5055151;28;20715;-74
2021/01/10 09:42:07;;;;;;;14.20;8.97;;;;;;;-2.37;71.73;96041.78;5055050;28;20173;-75
2021/01/10 09:44:32;;;;;;;12.53;8.50;;;;;;;-2.26;71.69;96049.00;5072299;28;20171;-74
2021/01/10 09:46:58;;;;;;;14.00;9.33;;;;;;;-2.34;71.72;96045.91;5072839;28;20628;-74
2021/01/10 09:49:30;;;;;;;9.70;7.70;;;;;;;-2.38;71.18;96039.28;5054929;28;20186;-74
2021/01/10 09:51:58;;;;;;;10.13;8.07;;;;;;;-2.42;71.20;96047.91;5038581;28;20227;-74
2021/01/10 09:54:26;;;;;;;10.03;7.50;;;;;;;-2.39;71.36;96045.25;5054586;28;20179;-74
2021/01/10 09:56:55;;;;;;;14.23;8.10;;;;;;;-2.40;71.11;96044.41;5072545;28;20190;-74
2021/01/10 09:59:39;;;;;;;10.27;7.57;;;;;;;-2.33;70.42;96045.00;5072315;28;20170;-74
2021/01/10 10:02:08;;;;;;;11.60;8.23;;;;;;;-2.49;71.18;96046.47;5038384;28;20545;-74
2021/01/10 10:04:34;;;;;;;10.00;7.43;;;;;;;-2.33;71.32;96047.56;5072668;28;20583;-74
2021/01/10 10:06:59;;;;;;;12.40;8.00;;;;;;;-2.54;71.55;96046.66;5070940;28;20202;-75
2021/01/10 10:09:47;;;;;;;11.80;8.13;;;;;;;-2.57;71.70;96039.94;5054070;28;20556;-74
2021/01/10 10:12:13;;;;;;;11.80;8.30;;;;;;;-2.64;72.09;96036.00;5054466;28;20260;-74
2021/01/10 10:14:38;;;;;;;12.63;8.83;;;;;;;-2.67;72.39;96037.81;5072460;28;20254;-74
2021/01/10 10:17:03;;;;;;;12.60;8.17;;;;;;;-2.66;71.70;96036.91;5054462;28;20240;-75
2021/01/10 10:19:29;;;;;;;10.40;7.33;;;;;;;-2.72;71.32;96034.63;5070537;28;20178;-74
2021/01/10 10:21:54;;;;;;;10.30;7.20;;;;;;;-2.62;71.86;96033.38;5054301;28;20274;-74
2021/01/10 10:24:19;;;;;;;10.83;7.33;;;;;;;-2.65;71.36;96036.88;5054292;28;20272;-75
2021/01/10 10:26:45;;;;;;;8.30;6.27;;;;;;;-2.61;70.63;96027.41;5071964;28;20218;-74
2021/01/10 10:29:10;;;;;;;8.27;6.37;;;;;;;-2.60;70.99;96034.97;5072961;28;20181;-74
2021/01/10 10:31:35;;;;;;;9.53;7.20;;;;;;;-2.72;70.39;96025.28;5054296;28;20196;-74
2021/01/10 10:34:01;;;;;;;10.63;7.27;;;;;;;-2.70;70.04;96023.50;5037463;28;20557;-74
2021/01/10 10:36:26;;;;;;;10.00;6.63;;;;;;;-2.70;70.56;96025.22;5071847;28;20538;-74
2021/01/10 10:38:51;;;;;;;10.87;7.03;;;;;;;-2.71;71.45;96032.00;5053776;28;20253;-74
2021/01/10 10:41:16;;;;;;;10.47;7.00;;;;;;;-2.65;70.61;96030.94;5054021;28;20180;-74
2021/01/10 10:43:42;;;;;;;7.63;5.70;;;;;;;-2.66;69.69;96030.09;5071848;28;20180;-73
2021/01/10 10:46:07;;;;;;;8.77;6.17;;;;;;;-2.44;70.02;96022.53;5071704;28;20186;-74
2021/01/10 10:48:33;;;;;;;11.57;7.37;;;;;;;-2.50;70.01;96029.56;5052981;28;20656;-75
2021/01/10 10:50:58;;;;;;;9.60;6.57;;;;;;;-2.30;69.62;96027.09;5053806;28;20240;-74
2021/01/10 10:53:23;;;;;;;9.87;6.97;;;;;;;-2.11;69.01;96022.16;5074330;28;20206;-74
2021/01/10 10:55:50;;;;;;;8.73;5.70;;;;;;;-2.18;68.34;96016.47;5071960;28;20167;-74
2021/01/10 10:58:15;;;;;;;8.07;6.00;;;;;;;-1.94;68.55;96021.47;5053612;28;20197;-74
2021/01/10 11:00:40;;;;;;;8.90;6.43;;;;;;;-1.72;67.85;96022.28;5071269;28;20537;-74
2021/01/10 11:03:05;;;;;;;8.90;6.13;;;;;;;-1.81;67.86;96017.53;5071622;28;20170;-74
2021/01/10 11:05:31;;;;;;;6.40;5.20;;;;;;;-1.62;67.47;96020.19;5071760;28;20204;-75
2021/01/10 11:07:56;;;;;;;8.20;5.97;;;;;;;-1.74;67.30;96021.50;5053548;28;20198;-75
2021/01/10 11:10:21;;;;;;;9.63;6.80;;;;;;;-1.56;67.52;96015.66;5070953;28;20268;-75
2021/01/10 11:12:47;;;;;;;8.93;6.10;;;;;;;-1.61;66.76;96004.81;5053776;28;20641;-76
2021/01/10 11:15:13;;;;;;;7.00;5.30;;;;;;;-1.58;67.10;95997.09;5053217;28;20172;-74
2021/01/10 11:17:38;;;;;;;7.33;5.70;;;;;;;-1.69;66.92;95999.22;5071352;28;20689;-74
2021/01/10 11:20:04;;;;;;;8.10;6.00;;;;;;;-1.67;66.29;95992.38;5053370;28;20222;-75
2021/01/10 11:22:34;;;;;;;9.07;6.30;;;;;;;-1.92;67.10;95991.69;5053297;28;20176;-75
2021/01/10 11:25:05;;;;;;;9.43;6.53;;;;;;;-1.81;66.45;95992.09;5054143;28;20226;-75
2021/01/10 11:27:30;;;;;;;8.93;6.47;;;;;;;-1.92;67.82;95978.97;5036582;28;20244;-74